AEA051 LEMD-MUHA
Flight info
| Callsign | AEA051 |
|---|---|
| Flight time | N/A |
| Altitude | 36000 |
| Route | BARDI DCT VIS DCT DIRMA DCT IBIDO DCT DETOX/M085F360 DCT 40N020W 38N030W 35N040W 32N050W/M085F380 DCT AMENO M593 GRATX/N0486F400 M329 ZQA R628 TANIA EPMAR2 |
| Aircraft | B789/H-SDE1E2E3FGHIJ2J3J4J5M1RWXY/LB1D1 |
Departure
| Time | 2026-05-04 11:44 |
|---|---|
| Airport | Adolfo Suárez Madrid–Barajas Airport (LEMD) |
Arrival
| Time | N/A |
|---|---|
| Airport | José Martí International Airport (MUHA) |
| Time | Latitude | Longitude | Altitude | Speed | Heading |
|---|---|---|---|---|---|
| 2026-05-04 09:46 | 40.46953 | -3.56803 | 1986 ft | 0 kts | 245° |
| 2026-05-04 11:33 | 40.46977 | -3.56731 | 1984 ft | 2 kts | 255° |
| 2026-05-04 11:33 | 40.46978 | -3.56710 | 1984 ft | 2 kts | 281° |
| 2026-05-04 11:33 | 40.46972 | -3.56692 | 1984 ft | 1 kts | 311° |
| 2026-05-04 11:34 | 40.46970 | -3.56689 | 1984 ft | 0 kts | 316° |
| 2026-05-04 11:39 | 40.47028 | -3.56753 | 1987 ft | 17 kts | 322° |
| 2026-05-04 11:39 | 40.47122 | -3.56863 | 1988 ft | 19 kts | 315° |
| 2026-05-04 11:40 | 40.47661 | -3.57035 | 1986 ft | 15 kts | 322° |
| 2026-05-04 11:41 | 40.47743 | -3.57118 | 1986 ft | 14 kts | 322° |
| 2026-05-04 11:41 | 40.47822 | -3.57198 | 1988 ft | 15 kts | 323° |
| 2026-05-04 11:41 | 40.47905 | -3.57280 | 1989 ft | 15 kts | 322° |
| 2026-05-04 11:41 | 40.47992 | -3.57369 | 1986 ft | 17 kts | 322° |
| 2026-05-04 11:42 | 40.48095 | -3.57473 | 1986 ft | 20 kts | 322° |
| 2026-05-04 11:42 | 40.48209 | -3.57590 | 1988 ft | 21 kts | 322° |
| 2026-05-04 11:42 | 40.48318 | -3.57701 | 1987 ft | 19 kts | 322° |
| 2026-05-04 11:42 | 40.48409 | -3.57727 | 1988 ft | 11 kts | 31° |
| 2026-05-04 11:43 | 40.48449 | -3.57656 | 1989 ft | 9 kts | 63° |
| 2026-05-04 11:43 | 40.48456 | -3.57587 | 1988 ft | 7 kts | 102° |
| 2026-05-04 11:43 | 40.48437 | -3.57551 | 1987 ft | 1 kts | 142° |
| 2026-05-04 11:43 | 40.48390 | -3.57503 | 1987 ft | 34 kts | 142° |
| 2026-05-04 11:44 | 40.48004 | -3.57109 | 1989 ft | 106 kts | 142° |
| 2026-05-04 11:44 | 40.47243 | -3.56335 | 1986 ft | 169 kts | 142° |
| 2026-05-04 11:44 | 40.46189 | -3.55241 | 2162 ft | 204 kts | 140° |
| 2026-05-04 11:44 | 40.45051 | -3.54066 | 2745 ft | 218 kts | 148° |
| 2026-05-04 11:45 | 40.43737 | -3.52893 | 3385 ft | 228 kts | 148° |
| 2026-05-04 11:45 | 40.42463 | -3.51621 | 4120 ft | 234 kts | 146° |
| 2026-05-04 11:45 | 40.41199 | -3.50305 | 4951 ft | 235 kts | 146° |
| 2026-05-04 11:45 | 40.39881 | -3.48948 | 5690 ft | 240 kts | 147° |
| 2026-05-04 11:46 | 40.38554 | -3.47600 | 6470 ft | 243 kts | 147° |
| 2026-05-04 11:46 | 40.37205 | -3.46230 | 7159 ft | 248 kts | 147° |
| 2026-05-04 11:46 | 40.35854 | -3.44855 | 7992 ft | 249 kts | 147° |
| 2026-05-04 11:46 | 40.34480 | -3.43454 | 8797 ft | 252 kts | 147° |
| 2026-05-04 11:47 | 40.33088 | -3.42040 | 9601 ft | 254 kts | 147° |
| 2026-05-04 11:47 | 40.31687 | -3.40615 | 10363 ft | 256 kts | 147° |
| 2026-05-04 11:47 | 40.30270 | -3.39180 | 10897 ft | 261 kts | 148° |
| 2026-05-04 11:47 | 40.28643 | -3.38236 | 11445 ft | 254 kts | 178° |
| 2026-05-04 11:48 | 40.26871 | -3.38249 | 11852 ft | 263 kts | 201° |
| 2026-05-04 11:48 | 40.25205 | -3.39277 | 12387 ft | 267 kts | 207° |
| 2026-05-04 11:48 | 40.23476 | -3.40220 | 13137 ft | 271 kts | 205° |
| 2026-05-04 11:48 | 40.21900 | -3.41537 | 13830 ft | 269 kts | 229° |
| 2026-05-04 11:49 | 40.20796 | -3.43515 | 14434 ft | 272 kts | 248° |
| 2026-05-04 11:49 | 40.20305 | -3.45980 | 14662 ft | 294 kts | 268° |
| 2026-05-04 11:49 | 40.20524 | -3.48711 | 14774 ft | 318 kts | 277° |
| 2026-05-04 11:49 | 40.20951 | -3.51671 | 14907 ft | 342 kts | 280° |
| 2026-05-04 11:50 | 40.21446 | -3.54719 | 15665 ft | 342 kts | 279° |
| 2026-05-04 11:50 | 40.21905 | -3.57784 | 16404 ft | 345 kts | 278° |
| 2026-05-04 11:50 | 40.22339 | -3.60881 | 17109 ft | 348 kts | 278° |
| 2026-05-04 11:50 | 40.22788 | -3.64003 | 17838 ft | 350 kts | 279° |
| 2026-05-04 11:51 | 40.23252 | -3.67142 | 18498 ft | 353 kts | 279° |
| 2026-05-04 11:51 | 40.23716 | -3.70309 | 19121 ft | 355 kts | 279° |
| 2026-05-04 11:51 | 40.24176 | -3.73496 | 19718 ft | 358 kts | 278° |
| 2026-05-04 11:51 | 40.24639 | -3.76708 | 20287 ft | 360 kts | 278° |
| 2026-05-04 11:52 | 40.25108 | -3.79944 | 20870 ft | 363 kts | 278° |
| 2026-05-04 11:52 | 40.25578 | -3.83200 | 21441 ft | 366 kts | 278° |
| 2026-05-04 11:52 | 40.26051 | -3.86488 | 21979 ft | 368 kts | 278° |
| 2026-05-04 11:52 | 40.26527 | -3.89804 | 22521 ft | 371 kts | 278° |
| 2026-05-04 11:53 | 40.26998 | -3.93093 | 23038 ft | 374 kts | 278° |
| 2026-05-04 11:53 | 40.27479 | -3.96461 | 23569 ft | 376 kts | 278° |
| 2026-05-04 11:53 | 40.27961 | -3.99836 | 23986 ft | 379 kts | 278° |
| 2026-05-04 11:53 | 40.28445 | -4.03237 | 24420 ft | 381 kts | 278° |
| 2026-05-04 11:55 | 40.31876 | -4.27564 | 27193 ft | 396 kts | 277° |
| 2026-05-04 11:55 | 40.32373 | -4.31117 | 27594 ft | 397 kts | 278° |
| 2026-05-04 11:56 | 40.32870 | -4.34681 | 27962 ft | 399 kts | 278° |
| 2026-05-04 11:56 | 40.33370 | -4.38277 | 28323 ft | 402 kts | 278° |
| 2026-05-04 11:56 | 40.33872 | -4.41890 | 28687 ft | 404 kts | 277° |
| 2026-05-04 11:56 | 40.34375 | -4.45525 | 29056 ft | 406 kts | 278° |
| 2026-05-04 11:57 | 40.34880 | -4.49178 | 29398 ft | 408 kts | 278° |
| 2026-05-04 11:57 | 40.35385 | -4.52847 | 29725 ft | 410 kts | 278° |
| 2026-05-04 11:57 | 40.35894 | -4.56546 | 30058 ft | 412 kts | 278° |
| 2026-05-04 11:57 | 40.36403 | -4.60257 | 30347 ft | 414 kts | 278° |
| 2026-05-04 11:58 | 40.36913 | -4.63991 | 30612 ft | 417 kts | 278° |
| 2026-05-04 11:58 | 40.37419 | -4.67693 | 30909 ft | 418 kts | 277° |
| 2026-05-04 11:58 | 40.37929 | -4.71449 | 31155 ft | 420 kts | 278° |
| 2026-05-04 11:58 | 40.38443 | -4.75235 | 31456 ft | 422 kts | 278° |
| 2026-05-04 11:59 | 40.38957 | -4.79037 | 31723 ft | 424 kts | 278° |
| 2026-05-04 11:59 | 40.39473 | -4.82858 | 31977 ft | 426 kts | 278° |
| 2026-05-04 11:59 | 40.39991 | -4.86702 | 32241 ft | 427 kts | 278° |
| 2026-05-04 11:59 | 40.40507 | -4.90551 | 32490 ft | 429 kts | 278° |
| 2026-05-04 12:00 | 40.41025 | -4.94417 | 32751 ft | 431 kts | 278° |
| 2026-05-04 12:00 | 40.41544 | -4.98304 | 32975 ft | 433 kts | 278° |
| 2026-05-04 12:00 | 40.42064 | -5.02199 | 33234 ft | 435 kts | 278° |
| 2026-05-04 12:00 | 40.42578 | -5.06069 | 33463 ft | 436 kts | 278° |
| 2026-05-04 12:01 | 40.43100 | -5.10013 | 33692 ft | 438 kts | 277° |
| 2026-05-04 12:01 | 40.43621 | -5.13954 | 33912 ft | 439 kts | 277° |
| 2026-05-04 12:02 | 40.46749 | -5.37854 | 35175 ft | 444 kts | 277° |
| 2026-05-04 12:03 | 40.47267 | -5.41851 | 35398 ft | 444 kts | 277° |
| 2026-05-04 12:03 | 40.47784 | -5.45847 | 35627 ft | 444 kts | 277° |
| 2026-05-04 12:03 | 40.48299 | -5.49849 | 35804 ft | 445 kts | 277° |
| 2026-05-04 12:03 | 40.48808 | -5.53811 | 35953 ft | 447 kts | 277° |
| 2026-05-04 12:04 | 40.49852 | -5.61968 | 36010 ft | 451 kts | 277° |
| 2026-05-04 12:04 | 40.50883 | -5.70065 | 36005 ft | 447 kts | 277° |
| 2026-05-04 12:05 | 40.51895 | -5.78080 | 35998 ft | 447 kts | 277° |
| 2026-05-04 12:05 | 40.52911 | -5.86150 | 36000 ft | 448 kts | 277° |
| 2026-05-04 12:06 | 40.53920 | -5.94223 | 36008 ft | 447 kts | 277° |
| 2026-05-04 12:06 | 40.54924 | -6.02300 | 36002 ft | 447 kts | 277° |
| 2026-05-04 12:07 | 40.55921 | -6.10375 | 36009 ft | 447 kts | 277° |
| 2026-05-04 12:07 | 40.56913 | -6.18447 | 36011 ft | 447 kts | 277° |
| 2026-05-04 12:08 | 40.57898 | -6.26517 | 36009 ft | 447 kts | 277° |
| 2026-05-04 12:08 | 40.58754 | -6.34608 | 36021 ft | 446 kts | 276° |
| 2026-05-04 12:09 | 40.59538 | -6.42700 | 36023 ft | 446 kts | 276° |
| 2026-05-04 12:09 | 40.60291 | -6.50801 | 36022 ft | 445 kts | 276° |
| 2026-05-04 12:10 | 40.61048 | -6.58899 | 36030 ft | 445 kts | 276° |
| 2026-05-04 12:10 | 40.61795 | -6.66984 | 36028 ft | 445 kts | 276° |
| 2026-05-04 12:11 | 40.62537 | -6.75062 | 36025 ft | 445 kts | 276° |
| 2026-05-04 12:11 | 40.63268 | -6.83090 | 36028 ft | 444 kts | 276° |
| 2026-05-04 12:12 | 40.63997 | -6.91167 | 36033 ft | 444 kts | 276° |
| 2026-05-04 12:12 | 40.64721 | -6.99239 | 36031 ft | 444 kts | 276° |
| 2026-05-04 12:14 | 40.67561 | -7.31579 | 36038 ft | 444 kts | 275° |
| 2026-05-04 12:15 | 40.68256 | -7.39660 | 36033 ft | 444 kts | 275° |
| 2026-05-04 12:15 | 40.68946 | -7.47743 | 36038 ft | 444 kts | 275° |
| 2026-05-04 12:16 | 40.69632 | -7.55845 | 36035 ft | 444 kts | 275° |
| 2026-05-04 12:16 | 40.70310 | -7.63937 | 36047 ft | 444 kts | 275° |
| 2026-05-04 12:17 | 40.70979 | -7.71976 | 36049 ft | 444 kts | 275° |
| 2026-05-04 12:17 | 40.71647 | -7.80073 | 36052 ft | 444 kts | 275° |
| 2026-05-04 12:18 | 40.72308 | -7.88162 | 36055 ft | 443 kts | 275° |
| 2026-05-04 12:18 | 40.72998 | -7.96223 | 36061 ft | 443 kts | 276° |
| 2026-05-04 12:19 | 40.73695 | -8.04309 | 36075 ft | 443 kts | 275° |
| 2026-05-04 12:19 | 40.74376 | -8.12396 | 36074 ft | 443 kts | 276° |
| 2026-05-04 12:20 | 40.75058 | -8.20473 | 36077 ft | 443 kts | 276° |
| 2026-05-04 12:20 | 40.75726 | -8.28506 | 36087 ft | 443 kts | 276° |
| 2026-05-04 12:21 | 40.76395 | -8.36588 | 36089 ft | 444 kts | 275° |
| 2026-05-04 12:21 | 40.77058 | -8.44678 | 36097 ft | 443 kts | 275° |
| 2026-05-04 12:22 | 40.77716 | -8.52774 | 36108 ft | 443 kts | 275° |
| 2026-05-04 12:22 | 40.78256 | -8.59489 | 36105 ft | 443 kts | 275° |
| 2026-05-04 12:23 | 40.78903 | -8.67582 | 36108 ft | 443 kts | 275° |
| 2026-05-04 12:23 | 40.79647 | -8.76973 | 36110 ft | 443 kts | 275° |
| 2026-05-04 12:24 | 40.80178 | -8.83749 | 36112 ft | 443 kts | 275° |
| 2026-05-04 12:24 | 40.80807 | -8.91835 | 36109 ft | 443 kts | 275° |
| 2026-05-04 12:25 | 40.81431 | -8.99927 | 36109 ft | 443 kts | 275° |
| 2026-05-04 12:25 | 40.82045 | -9.07973 | 36114 ft | 443 kts | 275° |
| 2026-05-04 12:26 | 40.82658 | -9.16077 | 36107 ft | 443 kts | 275° |
| 2026-05-04 12:26 | 40.83265 | -9.24181 | 36117 ft | 443 kts | 275° |
| 2026-05-04 12:27 | 40.83867 | -9.32287 | 36110 ft | 444 kts | 275° |
| 2026-05-04 12:27 | 40.84464 | -9.40402 | 36116 ft | 444 kts | 275° |
| 2026-05-04 12:28 | 40.85054 | -9.48522 | 36117 ft | 444 kts | 275° |
| 2026-05-04 12:28 | 40.85490 | -9.56655 | 36113 ft | 444 kts | 274° |
| 2026-05-04 12:29 | 40.85915 | -9.64743 | 36110 ft | 444 kts | 274° |
| 2026-05-04 12:29 | 40.86308 | -9.72877 | 36112 ft | 444 kts | 274° |
| 2026-05-04 12:30 | 40.86711 | -9.81017 | 36114 ft | 444 kts | 274° |
| 2026-05-04 12:30 | 40.87100 | -9.89156 | 36113 ft | 443 kts | 274° |
| 2026-05-04 12:31 | 40.87487 | -9.97289 | 36111 ft | 444 kts | 274° |
| 2026-05-04 12:31 | 40.87866 | -10.05423 | 36111 ft | 443 kts | 274° |
| 2026-05-04 12:32 | 40.88424 | -10.17579 | 36109 ft | 443 kts | 274° |
| 2026-05-04 12:33 | 40.88787 | -10.25711 | 36110 ft | 443 kts | 274° |
| 2026-05-04 12:33 | 40.89144 | -10.33857 | 36120 ft | 443 kts | 274° |
| 2026-05-04 12:34 | 40.89495 | -10.41995 | 36118 ft | 443 kts | 274° |
| 2026-05-04 12:34 | 40.89841 | -10.50144 | 36115 ft | 444 kts | 274° |
| 2026-05-04 12:35 | 40.90180 | -10.58285 | 36123 ft | 443 kts | 274° |
| 2026-05-04 12:35 | 40.90512 | -10.66369 | 36124 ft | 443 kts | 274° |
| 2026-05-04 12:36 | 40.90840 | -10.74505 | 36128 ft | 444 kts | 274° |
| 2026-05-04 12:36 | 40.91163 | -10.82650 | 36133 ft | 443 kts | 274° |
| 2026-05-04 12:37 | 40.91479 | -10.90782 | 36127 ft | 443 kts | 274° |
| 2026-05-04 12:37 | 40.91791 | -10.98949 | 36133 ft | 443 kts | 274° |
| 2026-05-04 12:38 | 40.92094 | -11.07038 | 36131 ft | 443 kts | 274° |
| 2026-05-04 12:38 | 40.92394 | -11.15189 | 36129 ft | 443 kts | 274° |
| 2026-05-04 12:39 | 40.92688 | -11.23326 | 36128 ft | 442 kts | 274° |
| 2026-05-04 12:39 | 40.92976 | -11.31465 | 36128 ft | 442 kts | 274° |
| 2026-05-04 12:40 | 40.93257 | -11.39592 | 36127 ft | 441 kts | 274° |
| 2026-05-04 12:40 | 40.93533 | -11.47703 | 36129 ft | 441 kts | 274° |
| 2026-05-04 12:41 | 40.93803 | -11.55825 | 36138 ft | 442 kts | 274° |
| 2026-05-04 12:41 | 40.94066 | -11.63891 | 36135 ft | 442 kts | 274° |
| 2026-05-04 12:42 | 40.94324 | -11.72014 | 36135 ft | 441 kts | 274° |
| 2026-05-04 12:42 | 40.94577 | -11.80119 | 36135 ft | 441 kts | 274° |
| 2026-05-04 12:43 | 40.94824 | -11.88229 | 36141 ft | 441 kts | 274° |
| 2026-05-04 12:43 | 40.95065 | -11.96333 | 36143 ft | 441 kts | 274° |
| 2026-05-04 12:44 | 40.95300 | -12.04444 | 36139 ft | 441 kts | 274° |
| 2026-05-04 12:44 | 40.95528 | -12.12497 | 36139 ft | 441 kts | 274° |
| 2026-05-04 12:45 | 40.95753 | -12.20609 | 36145 ft | 441 kts | 274° |
| 2026-05-04 12:45 | 40.95971 | -12.28714 | 36149 ft | 440 kts | 274° |
| 2026-05-04 12:46 | 40.96184 | -12.36808 | 36149 ft | 440 kts | 274° |
| 2026-05-04 12:46 | 40.96390 | -12.44903 | 36147 ft | 439 kts | 274° |
| 2026-05-04 12:47 | 40.96591 | -12.52978 | 36152 ft | 439 kts | 274° |
| 2026-05-04 12:47 | 40.96785 | -12.61002 | 36155 ft | 439 kts | 274° |
| 2026-05-04 12:48 | 40.96974 | -12.69071 | 36157 ft | 439 kts | 274° |
| 2026-05-04 12:48 | 40.97157 | -12.77138 | 36157 ft | 438 kts | 274° |
| 2026-05-04 12:49 | 40.97335 | -12.85208 | 36153 ft | 438 kts | 274° |
| 2026-05-04 12:49 | 40.97508 | -12.93286 | 36156 ft | 439 kts | 274° |
| 2026-05-04 12:50 | 40.97673 | -13.01314 | 36158 ft | 439 kts | 274° |
| 2026-05-04 12:50 | 40.97834 | -13.09381 | 36162 ft | 439 kts | 274° |
| 2026-05-04 12:51 | 40.97990 | -13.17474 | 36164 ft | 439 kts | 274° |
| 2026-05-04 12:51 | 40.98140 | -13.25547 | 36165 ft | 438 kts | 274° |
| 2026-05-04 12:52 | 40.98284 | -13.33611 | 36166 ft | 438 kts | 274° |
| 2026-05-04 12:52 | 40.98422 | -13.41674 | 36171 ft | 438 kts | 274° |
| 2026-05-04 12:53 | 40.98554 | -13.49689 | 36167 ft | 438 kts | 274° |
| 2026-05-04 12:53 | 40.98681 | -13.57746 | 36171 ft | 437 kts | 274° |
| 2026-05-04 12:54 | 40.98803 | -13.65801 | 36170 ft | 437 kts | 274° |
| 2026-05-04 12:54 | 40.98919 | -13.73851 | 36173 ft | 438 kts | 274° |
| 2026-05-04 12:55 | 40.99029 | -13.81905 | 36176 ft | 437 kts | 274° |
| 2026-05-04 12:55 | 40.99133 | -13.89947 | 36178 ft | 437 kts | 274° |
| 2026-05-04 12:56 | 40.99232 | -13.97956 | 36180 ft | 437 kts | 273° |
| 2026-05-04 12:56 | 40.99325 | -14.06006 | 36177 ft | 437 kts | 273° |
| 2026-05-04 12:57 | 40.99413 | -14.14055 | 36178 ft | 437 kts | 273° |
| 2026-05-04 12:57 | 40.99495 | -14.22102 | 36196 ft | 437 kts | 273° |
| 2026-05-04 12:58 | 40.99571 | -14.30101 | 36189 ft | 437 kts | 273° |
| 2026-05-04 12:58 | 40.99642 | -14.38168 | 36195 ft | 438 kts | 273° |
| 2026-05-04 12:59 | 40.99708 | -14.46230 | 36195 ft | 438 kts | 273° |
| 2026-05-04 12:59 | 40.99767 | -14.54298 | 36198 ft | 437 kts | 273° |
| 2026-05-04 13:00 | 40.99821 | -14.62295 | 36195 ft | 437 kts | 273° |
| 2026-05-04 13:00 | 40.99870 | -14.70342 | 36203 ft | 437 kts | 273° |
| 2026-05-04 13:01 | 40.99913 | -14.78405 | 36198 ft | 437 kts | 273° |
| 2026-05-04 13:01 | 40.99950 | -14.86446 | 36200 ft | 437 kts | 273° |
| 2026-05-04 13:02 | 40.99982 | -14.94506 | 36202 ft | 438 kts | 273° |
| 2026-05-04 13:02 | 40.99543 | -15.02573 | 36220 ft | 444 kts | 261° |
| 2026-05-04 13:03 | 40.98143 | -15.10546 | 36212 ft | 445 kts | 261° |
| 2026-05-04 13:03 | 40.96741 | -15.18466 | 36207 ft | 444 kts | 261° |
| 2026-05-04 13:04 | 40.95324 | -15.26425 | 36202 ft | 444 kts | 261° |
| 2026-05-04 13:04 | 40.93905 | -15.34379 | 36207 ft | 444 kts | 261° |
| 2026-05-04 13:05 | 40.92481 | -15.42314 | 36202 ft | 444 kts | 261° |
| 2026-05-04 13:05 | 40.91052 | -15.50248 | 36207 ft | 443 kts | 261° |
| 2026-05-04 13:06 | 40.89619 | -15.58170 | 36209 ft | 443 kts | 261° |
| 2026-05-04 13:06 | 40.88182 | -15.66083 | 36207 ft | 443 kts | 261° |
| 2026-05-04 13:07 | 40.86739 | -15.73996 | 36213 ft | 443 kts | 261° |
| 2026-05-04 13:07 | 40.85291 | -15.81904 | 36214 ft | 443 kts | 261° |
| 2026-05-04 13:08 | 40.83843 | -15.89774 | 36215 ft | 444 kts | 261° |
| 2026-05-04 13:08 | 40.82379 | -15.97704 | 36216 ft | 444 kts | 261° |
| 2026-05-04 13:09 | 40.80908 | -16.05632 | 36217 ft | 444 kts | 261° |
| 2026-05-04 13:09 | 40.79434 | -16.13551 | 36216 ft | 444 kts | 261° |
| 2026-05-04 13:10 | 40.78202 | -16.20140 | 36220 ft | 445 kts | 260° |
| 2026-05-04 13:10 | 40.76475 | -16.29339 | 36225 ft | 444 kts | 260° |
| 2026-05-04 13:11 | 40.75226 | -16.35971 | 36224 ft | 444 kts | 260° |
| 2026-05-04 13:11 | 40.73739 | -16.43833 | 36229 ft | 445 kts | 260° |
| 2026-05-04 13:12 | 40.72237 | -16.51740 | 36230 ft | 444 kts | 260° |
| 2026-05-04 13:12 | 40.70732 | -16.59630 | 36232 ft | 444 kts | 260° |
| 2026-05-04 13:13 | 40.69223 | -16.67516 | 36232 ft | 444 kts | 260° |
| 2026-05-04 13:13 | 40.67706 | -16.75405 | 36234 ft | 443 kts | 260° |
| 2026-05-04 13:14 | 40.66187 | -16.83281 | 36235 ft | 444 kts | 259° |
| 2026-05-04 13:14 | 40.64660 | -16.91157 | 36232 ft | 444 kts | 259° |
| 2026-05-04 13:15 | 40.63127 | -16.99043 | 36234 ft | 445 kts | 259° |
| 2026-05-04 13:15 | 40.61584 | -17.06938 | 36236 ft | 445 kts | 259° |
| 2026-05-04 13:16 | 40.60045 | -17.14792 | 36239 ft | 446 kts | 259° |
| 2026-05-04 13:16 | 40.58490 | -17.22689 | 36240 ft | 446 kts | 259° |
| 2026-05-04 13:17 | 40.56928 | -17.30596 | 36242 ft | 447 kts | 259° |
| 2026-05-04 13:17 | 40.55367 | -17.38462 | 36243 ft | 447 kts | 259° |
| 2026-05-04 13:18 | 40.53793 | -17.46369 | 36241 ft | 447 kts | 259° |
| 2026-05-04 13:18 | 40.52212 | -17.54276 | 36241 ft | 447 kts | 259° |
| 2026-05-04 13:19 | 40.50625 | -17.62182 | 36242 ft | 447 kts | 258° |
| 2026-05-04 13:19 | 40.49033 | -17.70082 | 36247 ft | 447 kts | 258° |
| 2026-05-04 13:20 | 40.47438 | -17.77970 | 36245 ft | 446 kts | 258° |
| 2026-05-04 13:20 | 40.45837 | -17.85854 | 36246 ft | 446 kts | 258° |
| 2026-05-04 13:21 | 40.44231 | -17.93736 | 36249 ft | 447 kts | 258° |
| 2026-05-04 13:21 | 40.42626 | -18.01580 | 36247 ft | 447 kts | 258° |
| 2026-05-04 13:22 | 40.41006 | -18.09470 | 36249 ft | 448 kts | 258° |
| 2026-05-04 13:22 | 40.39377 | -18.17370 | 36250 ft | 449 kts | 257° |
| 2026-05-04 13:23 | 40.37742 | -18.25271 | 36254 ft | 449 kts | 257° |
| 2026-05-04 13:23 | 40.36111 | -18.33125 | 36256 ft | 449 kts | 257° |
| 2026-05-04 13:24 | 40.34463 | -18.41028 | 36256 ft | 449 kts | 257° |
| 2026-05-04 13:24 | 40.32809 | -18.48934 | 36255 ft | 450 kts | 257° |
| 2026-05-04 13:25 | 40.30318 | -18.60783 | 36267 ft | 450 kts | 257° |
| 2026-05-04 13:25 | 40.28647 | -18.68692 | 36267 ft | 451 kts | 257° |
| 2026-05-04 13:26 | 40.26967 | -18.76617 | 36265 ft | 451 kts | 256° |
| 2026-05-04 13:26 | 40.25294 | -18.84480 | 36264 ft | 451 kts | 256° |
| 2026-05-04 13:27 | 40.23604 | -18.92392 | 36263 ft | 452 kts | 256° |
| 2026-05-04 13:27 | 40.21904 | -19.00325 | 36262 ft | 452 kts | 256° |
| 2026-05-04 13:28 | 40.20197 | -19.08255 | 36265 ft | 453 kts | 256° |
| 2026-05-04 13:28 | 40.18482 | -19.16198 | 36260 ft | 453 kts | 256° |
| 2026-05-04 13:29 | 40.16763 | -19.24128 | 36267 ft | 454 kts | 256° |
| 2026-05-04 13:29 | 40.15047 | -19.32016 | 36265 ft | 454 kts | 256° |
| 2026-05-04 13:30 | 40.13313 | -19.39961 | 36266 ft | 454 kts | 255° |
| 2026-05-04 13:30 | 40.11575 | -19.47891 | 36266 ft | 454 kts | 255° |
| 2026-05-04 13:31 | 40.09827 | -19.55839 | 36266 ft | 455 kts | 255° |
| 2026-05-04 13:31 | 40.08084 | -19.63739 | 36268 ft | 456 kts | 255° |
| 2026-05-04 13:32 | 40.06321 | -19.71695 | 36270 ft | 456 kts | 255° |
| 2026-05-04 13:32 | 40.04552 | -19.79655 | 36271 ft | 457 kts | 255° |
| 2026-05-04 13:33 | 40.02774 | -19.87625 | 36268 ft | 457 kts | 255° |
| 2026-05-04 13:33 | 40.00991 | -19.95588 | 36273 ft | 458 kts | 255° |
| 2026-05-04 13:34 | 39.99459 | -20.03645 | 36284 ft | 458 kts | 259° |
| 2026-05-04 13:34 | 39.98189 | -20.11810 | 36293 ft | 460 kts | 259° |
| 2026-05-04 13:35 | 39.96310 | -20.24083 | 36292 ft | 461 kts | 259° |
| 2026-05-04 13:36 | 39.95043 | -20.32221 | 36293 ft | 461 kts | 259° |
| 2026-05-04 13:36 | 39.93771 | -20.40415 | 36293 ft | 461 kts | 259° |
| 2026-05-04 13:37 | 39.92484 | -20.48625 | 36288 ft | 462 kts | 259° |
| 2026-05-04 13:37 | 39.91203 | -20.56781 | 36297 ft | 462 kts | 259° |
| 2026-05-04 13:38 | 39.89906 | -20.64994 | 36291 ft | 463 kts | 258° |
| 2026-05-04 13:38 | 39.88602 | -20.73206 | 36291 ft | 463 kts | 258° |
| 2026-05-04 13:39 | 39.87292 | -20.81421 | 36294 ft | 463 kts | 258° |
| 2026-05-04 13:39 | 39.85973 | -20.89655 | 36293 ft | 464 kts | 258° |
| 2026-05-04 13:40 | 39.84654 | -20.97841 | 36292 ft | 465 kts | 258° |
| 2026-05-04 13:40 | 39.83323 | -21.06070 | 36294 ft | 465 kts | 258° |
| 2026-05-04 13:41 | 39.81987 | -21.14288 | 36290 ft | 464 kts | 258° |
| 2026-05-04 13:41 | 39.80646 | -21.22501 | 36294 ft | 464 kts | 258° |
| 2026-05-04 13:42 | 39.78621 | -21.34826 | 36292 ft | 465 kts | 258° |
| 2026-05-04 13:42 | 39.77263 | -21.43046 | 36291 ft | 465 kts | 258° |
| 2026-05-04 13:43 | 39.75908 | -21.51206 | 36293 ft | 465 kts | 258° |
| 2026-05-04 13:43 | 39.74535 | -21.59438 | 36296 ft | 466 kts | 258° |
| 2026-05-04 13:44 | 39.73155 | -21.67673 | 36291 ft | 466 kts | 258° |
| 2026-05-04 13:44 | 39.71768 | -21.75914 | 36292 ft | 466 kts | 257° |
| 2026-05-04 13:45 | 39.70377 | -21.84136 | 36291 ft | 466 kts | 257° |
| 2026-05-04 13:45 | 39.68988 | -21.92315 | 36293 ft | 466 kts | 257° |
| 2026-05-04 13:46 | 39.67586 | -22.00532 | 36294 ft | 466 kts | 257° |
| 2026-05-04 13:46 | 39.66179 | -22.08740 | 36296 ft | 466 kts | 257° |
| 2026-05-04 13:47 | 39.64763 | -22.16961 | 36297 ft | 466 kts | 257° |
| 2026-05-04 13:47 | 39.63342 | -22.25176 | 36292 ft | 466 kts | 257° |
| 2026-05-04 13:48 | 39.61916 | -22.33381 | 36291 ft | 466 kts | 257° |
| 2026-05-04 13:48 | 39.60495 | -22.41527 | 36296 ft | 467 kts | 257° |
| 2026-05-04 13:49 | 39.59054 | -22.49748 | 36291 ft | 467 kts | 257° |
| 2026-05-04 13:49 | 39.57607 | -22.57966 | 36296 ft | 467 kts | 257° |
| 2026-05-04 13:50 | 39.56156 | -22.66169 | 36298 ft | 467 kts | 257° |
| 2026-05-04 13:50 | 39.54697 | -22.74380 | 36302 ft | 467 kts | 257° |
| 2026-05-04 13:51 | 39.53230 | -22.82604 | 36302 ft | 467 kts | 257° |
| 2026-05-04 13:51 | 39.51770 | -22.90754 | 36295 ft | 467 kts | 257° |
| 2026-05-04 13:52 | 39.49552 | -23.03064 | 36298 ft | 468 kts | 257° |
| 2026-05-04 13:53 | 39.48065 | -23.11273 | 36304 ft | 469 kts | 257° |
| 2026-05-04 13:53 | 39.46571 | -23.19484 | 36299 ft | 469 kts | 257° |
| 2026-05-04 13:54 | 39.44317 | -23.31807 | 36308 ft | 468 kts | 257° |
| 2026-05-04 13:55 | 39.42056 | -23.44093 | 36310 ft | 468 kts | 257° |
| 2026-05-04 13:55 | 39.39789 | -23.56330 | 36306 ft | 468 kts | 257° |
| 2026-05-04 13:56 | 39.38267 | -23.64502 | 36309 ft | 467 kts | 257° |
| 2026-05-04 13:57 | 39.35973 | -23.76760 | 36308 ft | 467 kts | 256° |
| 2026-05-04 13:58 | 39.32906 | -23.93027 | 36305 ft | 467 kts | 256° |
| 2026-05-04 13:58 | 39.30586 | -24.05241 | 36314 ft | 467 kts | 256° |
| 2026-05-04 13:59 | 39.29296 | -24.12000 | 36303 ft | 467 kts | 256° |
| 2026-05-04 14:00 | 39.26957 | -24.24203 | 36307 ft | 465 kts | 256° |
| 2026-05-04 14:00 | 39.24610 | -24.36369 | 36319 ft | 467 kts | 256° |
| 2026-05-04 14:01 | 39.23034 | -24.44497 | 36314 ft | 466 kts | 256° |
| 2026-05-04 14:02 | 39.20663 | -24.56667 | 36316 ft | 467 kts | 256° |
| 2026-05-04 14:02 | 39.19069 | -24.64805 | 36322 ft | 468 kts | 256° |
| 2026-05-04 14:03 | 39.17482 | -24.72874 | 36326 ft | 467 kts | 256° |
| 2026-05-04 14:03 | 39.15880 | -24.80988 | 36322 ft | 466 kts | 256° |
| 2026-05-04 14:04 | 39.13471 | -24.93135 | 36311 ft | 467 kts | 256° |
| 2026-05-04 14:04 | 39.11855 | -25.01241 | 36316 ft | 467 kts | 256° |
| 2026-05-04 14:05 | 39.09421 | -25.13390 | 36327 ft | 467 kts | 256° |
| 2026-05-04 14:06 | 39.07801 | -25.21437 | 36317 ft | 467 kts | 256° |
| 2026-05-04 14:06 | 39.06165 | -25.29534 | 36320 ft | 467 kts | 256° |
| 2026-05-04 14:07 | 39.04523 | -25.37624 | 36321 ft | 467 kts | 256° |
| 2026-05-04 14:07 | 39.02876 | -25.45712 | 36316 ft | 467 kts | 256° |
| 2026-05-04 14:08 | 39.01231 | -25.53760 | 36316 ft | 467 kts | 256° |
| 2026-05-04 14:08 | 38.99573 | -25.61836 | 36319 ft | 466 kts | 256° |
| 2026-05-04 14:09 | 38.97082 | -25.73915 | 36313 ft | 465 kts | 256° |
| 2026-05-04 14:10 | 38.94584 | -25.85963 | 36321 ft | 465 kts | 256° |
| 2026-05-04 14:10 | 38.92910 | -25.93994 | 36305 ft | 464 kts | 256° |
| 2026-05-04 14:11 | 38.91245 | -26.01955 | 36320 ft | 465 kts | 256° |
| 2026-05-04 14:11 | 38.88720 | -26.13972 | 36327 ft | 464 kts | 256° |
| 2026-05-04 14:12 | 38.87031 | -26.21971 | 36327 ft | 464 kts | 256° |
| 2026-05-04 14:13 | 38.84497 | -26.33920 | 36324 ft | 464 kts | 256° |
| 2026-05-04 14:13 | 38.82797 | -26.41898 | 36327 ft | 463 kts | 256° |
| 2026-05-04 14:14 | 38.81091 | -26.49877 | 36329 ft | 463 kts | 256° |
| 2026-05-04 14:14 | 38.78527 | -26.61811 | 36324 ft | 462 kts | 256° |
| 2026-05-04 14:15 | 38.75105 | -26.77644 | 36333 ft | 462 kts | 256° |
| 2026-05-04 14:16 | 38.72517 | -26.89540 | 36336 ft | 461 kts | 256° |
| 2026-05-04 14:17 | 38.69930 | -27.01366 | 36337 ft | 461 kts | 256° |
| 2026-05-04 14:18 | 38.67325 | -27.13215 | 36340 ft | 460 kts | 256° |
| 2026-05-04 14:19 | 38.63836 | -27.28983 | 36333 ft | 460 kts | 256° |
| 2026-05-04 14:19 | 38.62088 | -27.36843 | 36330 ft | 459 kts | 256° |
| 2026-05-04 14:20 | 38.60333 | -27.44707 | 36322 ft | 460 kts | 256° |
| 2026-05-04 14:20 | 38.58584 | -27.52517 | 36319 ft | 460 kts | 256° |
| 2026-05-04 14:21 | 38.55931 | -27.64309 | 36319 ft | 460 kts | 256° |
| 2026-05-04 14:21 | 38.54155 | -27.72173 | 36317 ft | 461 kts | 256° |
| 2026-05-04 14:22 | 38.52371 | -27.80043 | 36317 ft | 461 kts | 256° |
| 2026-05-04 14:22 | 38.50590 | -27.87873 | 36318 ft | 461 kts | 255° |
| 2026-05-04 14:23 | 38.47894 | -27.99673 | 36319 ft | 462 kts | 255° |
| 2026-05-04 14:24 | 38.46088 | -28.07543 | 36320 ft | 461 kts | 255° |
| 2026-05-04 14:24 | 38.44281 | -28.15394 | 36313 ft | 461 kts | 255° |
| 2026-05-04 14:25 | 38.42463 | -28.23263 | 36316 ft | 461 kts | 255° |
| 2026-05-04 14:25 | 38.39733 | -28.35030 | 36312 ft | 461 kts | 255° |
| 2026-05-04 14:26 | 38.37906 | -28.42877 | 36311 ft | 461 kts | 255° |
| 2026-05-04 14:26 | 38.36085 | -28.50665 | 36317 ft | 461 kts | 255° |
| 2026-05-04 14:27 | 38.34247 | -28.58501 | 36313 ft | 461 kts | 255° |
| 2026-05-04 14:27 | 38.32407 | -28.66321 | 36309 ft | 461 kts | 255° |
| 2026-05-04 14:28 | 38.30562 | -28.74139 | 36313 ft | 461 kts | 255° |
| 2026-05-04 14:28 | 38.28706 | -28.81972 | 36310 ft | 461 kts | 255° |
| 2026-05-04 14:29 | 38.24993 | -28.97569 | 36308 ft | 461 kts | 255° |
| 2026-05-04 14:30 | 38.23123 | -29.05386 | 36307 ft | 462 kts | 255° |
| 2026-05-04 14:31 | 38.20320 | -29.17055 | 36306 ft | 461 kts | 254° |
| 2026-05-04 14:32 | 38.16552 | -29.32652 | 36306 ft | 461 kts | 254° |
| 2026-05-04 14:32 | 38.14664 | -29.40430 | 36305 ft | 460 kts | 254° |
| 2026-05-04 14:33 | 38.12770 | -29.48208 | 36303 ft | 460 kts | 254° |
| 2026-05-04 14:33 | 38.10872 | -29.55976 | 36305 ft | 461 kts | 254° |
| 2026-05-04 14:34 | 38.08967 | -29.63749 | 36301 ft | 460 kts | 254° |
| 2026-05-04 14:34 | 38.07055 | -29.71525 | 36300 ft | 461 kts | 254° |
| 2026-05-04 14:35 | 38.05139 | -29.79291 | 36301 ft | 462 kts | 253° |
| 2026-05-04 14:35 | 38.03226 | -29.87021 | 36301 ft | 462 kts | 253° |
| 2026-05-04 14:36 | 38.01293 | -29.94805 | 36303 ft | 463 kts | 253° |
| 2026-05-04 14:36 | 37.99354 | -30.02596 | 36305 ft | 464 kts | 253° |
| 2026-05-04 14:37 | 37.97419 | -30.10414 | 36303 ft | 464 kts | 253° |
| 2026-05-04 14:37 | 37.95472 | -30.18225 | 36303 ft | 465 kts | 253° |
| 2026-05-04 14:38 | 37.93522 | -30.26037 | 36306 ft | 465 kts | 253° |
| 2026-05-04 14:38 | 37.91577 | -30.33802 | 36300 ft | 466 kts | 253° |
| 2026-05-04 14:39 | 37.89609 | -30.41632 | 36302 ft | 466 kts | 253° |
| 2026-05-04 14:39 | 37.87639 | -30.49445 | 36298 ft | 466 kts | 253° |
| 2026-05-04 14:40 | 37.84676 | -30.61152 | 36292 ft | 465 kts | 253° |
| 2026-05-04 14:40 | 37.82691 | -30.68962 | 36289 ft | 465 kts | 253° |
| 2026-05-04 14:41 | 37.80717 | -30.76707 | 36290 ft | 466 kts | 253° |
| 2026-05-04 14:42 | 37.76729 | -30.92280 | 36288 ft | 466 kts | 253° |
| 2026-05-04 14:42 | 37.74725 | -31.00070 | 36285 ft | 465 kts | 253° |
| 2026-05-04 14:43 | 37.72714 | -31.07861 | 36286 ft | 466 kts | 253° |
| 2026-05-04 14:43 | 37.70700 | -31.15642 | 36283 ft | 466 kts | 253° |
| 2026-05-04 14:44 | 37.68692 | -31.23375 | 36287 ft | 466 kts | 253° |
| 2026-05-04 14:44 | 37.66668 | -31.31145 | 36282 ft | 466 kts | 253° |
| 2026-05-04 14:45 | 37.64633 | -31.38934 | 36287 ft | 467 kts | 253° |
| 2026-05-04 14:45 | 37.62588 | -31.46734 | 36282 ft | 468 kts | 253° |
| 2026-05-04 14:46 | 37.60539 | -31.54529 | 36287 ft | 469 kts | 253° |
| 2026-05-04 14:46 | 37.58475 | -31.62358 | 36282 ft | 470 kts | 253° |
| 2026-05-04 14:47 | 37.56756 | -31.68858 | 36283 ft | 470 kts | 253° |
| 2026-05-04 14:47 | 37.54680 | -31.76689 | 36278 ft | 471 kts | 253° |
| 2026-05-04 14:48 | 37.52593 | -31.84534 | 36281 ft | 472 kts | 253° |
| 2026-05-04 14:48 | 37.50516 | -31.92323 | 36278 ft | 472 kts | 253° |
| 2026-05-04 14:49 | 37.48418 | -32.00162 | 36280 ft | 473 kts | 254° |
| 2026-05-04 14:49 | 37.46312 | -32.08008 | 36277 ft | 473 kts | 254° |
| 2026-05-04 14:50 | 37.44198 | -32.15859 | 36276 ft | 474 kts | 254° |
| 2026-05-04 14:50 | 37.42074 | -32.23725 | 36284 ft | 476 kts | 254° |
| 2026-05-04 14:51 | 37.39938 | -32.31614 | 36286 ft | 477 kts | 254° |
| 2026-05-04 14:51 | 37.37804 | -32.39469 | 36278 ft | 478 kts | 254° |
| 2026-05-04 14:52 | 37.35645 | -32.47392 | 36273 ft | 479 kts | 254° |
| 2026-05-04 14:52 | 37.33480 | -32.55314 | 36262 ft | 479 kts | 254° |
| 2026-05-04 14:53 | 37.31303 | -32.63254 | 36271 ft | 480 kts | 255° |
| 2026-05-04 14:53 | 37.29120 | -32.71193 | 36273 ft | 480 kts | 255° |
| 2026-05-04 14:54 | 37.26934 | -32.79119 | 36268 ft | 481 kts | 255° |
| 2026-05-04 14:54 | 37.24744 | -32.87038 | 36262 ft | 483 kts | 255° |
| 2026-05-04 14:55 | 37.22527 | -32.95028 | 36267 ft | 485 kts | 255° |
| 2026-05-04 14:55 | 37.20300 | -33.03029 | 36271 ft | 485 kts | 256° |
| 2026-05-04 14:56 | 37.18084 | -33.10969 | 36263 ft | 485 kts | 256° |
| 2026-05-04 14:56 | 37.15847 | -33.18963 | 36264 ft | 486 kts | 256° |
| 2026-05-04 14:57 | 37.13594 | -33.26985 | 36265 ft | 488 kts | 256° |
| 2026-05-04 14:57 | 37.11330 | -33.35024 | 36259 ft | 488 kts | 256° |
| 2026-05-04 14:58 | 37.09078 | -33.42997 | 36263 ft | 488 kts | 256° |
| 2026-05-04 14:58 | 37.06805 | -33.51022 | 36260 ft | 490 kts | 257° |
| 2026-05-04 14:59 | 37.04514 | -33.59083 | 36262 ft | 492 kts | 257° |
| 2026-05-04 15:00 | 37.01063 | -33.71181 | 36253 ft | 492 kts | 257° |
| 2026-05-04 15:00 | 36.98753 | -33.79250 | 36256 ft | 493 kts | 257° |
| 2026-05-04 15:01 | 36.95286 | -33.91316 | 36255 ft | 493 kts | 258° |
| 2026-05-04 15:01 | 36.92955 | -33.99398 | 36258 ft | 493 kts | 258° |
| 2026-05-04 15:02 | 36.90622 | -34.07464 | 36251 ft | 494 kts | 258° |
| 2026-05-04 15:02 | 36.88282 | -34.15527 | 36248 ft | 493 kts | 258° |
| 2026-05-04 15:03 | 36.85952 | -34.23537 | 36250 ft | 494 kts | 258° |
| 2026-05-04 15:03 | 36.83594 | -34.31617 | 36256 ft | 495 kts | 258° |
| 2026-05-04 15:04 | 36.81230 | -34.39693 | 36250 ft | 495 kts | 258° |
| 2026-05-04 15:04 | 36.78863 | -34.47761 | 36244 ft | 495 kts | 258° |
| 2026-05-04 15:05 | 36.76498 | -34.55793 | 36248 ft | 496 kts | 258° |
| 2026-05-04 15:05 | 36.74114 | -34.63867 | 36253 ft | 496 kts | 258° |
| 2026-05-04 15:06 | 36.71722 | -34.71949 | 36248 ft | 497 kts | 258° |
| 2026-05-04 15:07 | 36.68117 | -34.84075 | 36243 ft | 497 kts | 258° |
| 2026-05-04 15:07 | 36.65711 | -34.92144 | 36243 ft | 496 kts | 258° |
| 2026-05-04 15:08 | 36.63304 | -35.00188 | 36243 ft | 495 kts | 258° |
| 2026-05-04 15:08 | 36.60895 | -35.08223 | 36239 ft | 495 kts | 258° |
| 2026-05-04 15:09 | 36.58476 | -35.16262 | 36241 ft | 495 kts | 258° |
| 2026-05-04 15:09 | 36.56071 | -35.24233 | 36238 ft | 494 kts | 258° |
| 2026-05-04 15:10 | 36.52437 | -35.36237 | 36237 ft | 493 kts | 258° |
| 2026-05-04 15:11 | 36.48794 | -35.48219 | 36237 ft | 493 kts | 257° |
| 2026-05-04 15:11 | 36.46377 | -35.56141 | 36234 ft | 493 kts | 257° |
| 2026-05-04 15:12 | 36.43940 | -35.64106 | 36237 ft | 493 kts | 257° |
| 2026-05-04 15:12 | 36.41494 | -35.72076 | 36217 ft | 493 kts | 257° |
| 2026-05-04 15:13 | 36.39050 | -35.80022 | 36220 ft | 492 kts | 257° |
| 2026-05-04 15:13 | 36.36596 | -35.87973 | 36226 ft | 493 kts | 257° |
| 2026-05-04 15:14 | 36.34158 | -35.95854 | 36226 ft | 492 kts | 257° |
| 2026-05-04 15:14 | 36.31697 | -36.03786 | 36222 ft | 492 kts | 257° |
| 2026-05-04 15:15 | 36.29232 | -36.11708 | 36224 ft | 492 kts | 257° |
| 2026-05-04 15:15 | 36.26772 | -36.19595 | 36224 ft | 492 kts | 257° |
| 2026-05-04 15:16 | 36.23062 | -36.31445 | 36221 ft | 491 kts | 257° |
| 2026-05-04 15:17 | 36.19337 | -36.43298 | 36224 ft | 492 kts | 257° |
| 2026-05-04 15:17 | 36.15607 | -36.55118 | 36225 ft | 493 kts | 257° |
| 2026-05-04 15:18 | 36.13103 | -36.63026 | 36220 ft | 493 kts | 257° |
| 2026-05-04 15:19 | 36.09337 | -36.74876 | 36217 ft | 493 kts | 257° |
| 2026-05-04 15:19 | 36.05580 | -36.86652 | 36213 ft | 492 kts | 257° |
| 2026-05-04 15:20 | 36.03061 | -36.94522 | 36213 ft | 492 kts | 257° |
| 2026-05-04 15:20 | 36.00541 | -37.02375 | 36209 ft | 492 kts | 256° |
| 2026-05-04 15:21 | 35.98026 | -37.10187 | 36208 ft | 491 kts | 256° |
| 2026-05-04 15:22 | 35.94231 | -37.21943 | 36208 ft | 490 kts | 256° |
| 2026-05-04 15:22 | 35.90434 | -37.33654 | 36211 ft | 489 kts | 256° |
| 2026-05-04 15:23 | 35.87903 | -37.41437 | 36200 ft | 488 kts | 256° |
| 2026-05-04 15:23 | 35.85370 | -37.49205 | 36202 ft | 488 kts | 256° |
| 2026-05-04 15:24 | 35.80309 | -37.64665 | 36196 ft | 487 kts | 255° |
| 2026-05-04 15:25 | 35.77767 | -37.72399 | 36201 ft | 486 kts | 255° |
| 2026-05-04 15:26 | 35.73952 | -37.83972 | 36194 ft | 486 kts | 255° |
| 2026-05-04 15:26 | 35.70129 | -37.95522 | 36194 ft | 485 kts | 255° |
| 2026-05-04 15:27 | 35.66322 | -38.06980 | 36199 ft | 484 kts | 255° |
| 2026-05-04 15:28 | 35.62503 | -38.18432 | 36197 ft | 481 kts | 255° |
| 2026-05-04 15:29 | 35.58682 | -38.29844 | 36189 ft | 480 kts | 255° |
| 2026-05-04 15:30 | 35.49775 | -38.56285 | 36182 ft | 478 kts | 254° |
| 2026-05-04 15:31 | 35.45947 | -38.67580 | 36181 ft | 477 kts | 254° |
| 2026-05-04 15:32 | 35.39573 | -38.86293 | 36182 ft | 477 kts | 254° |
| 2026-05-04 15:34 | 35.33155 | -39.05020 | 36177 ft | 476 kts | 253° |
| 2026-05-04 15:34 | 35.29297 | -39.16225 | 36179 ft | 476 kts | 253° |
| 2026-05-04 15:35 | 35.25425 | -39.27424 | 36175 ft | 476 kts | 253° |
| 2026-05-04 15:36 | 35.21548 | -39.38601 | 36177 ft | 475 kts | 253° |
| 2026-05-04 15:36 | 35.18976 | -39.45995 | 36176 ft | 475 kts | 253° |
| 2026-05-04 15:37 | 35.16387 | -39.53417 | 36177 ft | 474 kts | 253° |
| 2026-05-04 15:37 | 35.14233 | -39.59580 | 36180 ft | 474 kts | 253° |
| 2026-05-04 15:38 | 35.11639 | -39.66986 | 36176 ft | 474 kts | 253° |
| 2026-05-04 15:38 | 35.09045 | -39.74373 | 36172 ft | 473 kts | 253° |
| 2026-05-04 15:39 | 35.06444 | -39.81765 | 36174 ft | 473 kts | 253° |
| 2026-05-04 15:40 | 35.02542 | -39.92820 | 36172 ft | 472 kts | 252° |
| 2026-05-04 15:40 | 34.99973 | -40.00189 | 36185 ft | 469 kts | 257° |
| 2026-05-04 15:41 | 34.98063 | -40.07755 | 36183 ft | 468 kts | 258° |
| 2026-05-04 15:41 | 34.96152 | -40.15330 | 36179 ft | 467 kts | 258° |
| 2026-05-04 15:42 | 34.94266 | -40.22845 | 36172 ft | 467 kts | 258° |
| 2026-05-04 15:42 | 34.92350 | -40.30414 | 36171 ft | 467 kts | 258° |
| 2026-05-04 15:43 | 34.90438 | -40.37970 | 36172 ft | 466 kts | 258° |
| 2026-05-04 15:43 | 34.88519 | -40.45517 | 36172 ft | 466 kts | 258° |
| 2026-05-04 15:44 | 34.86594 | -40.53075 | 36171 ft | 467 kts | 258° |
| 2026-05-04 15:44 | 34.84666 | -40.60616 | 36171 ft | 467 kts | 258° |
| 2026-05-04 15:45 | 34.82743 | -40.68122 | 36172 ft | 467 kts | 258° |
| 2026-05-04 15:45 | 34.80802 | -40.75673 | 36171 ft | 468 kts | 258° |
| 2026-05-04 15:46 | 34.78854 | -40.83227 | 36172 ft | 468 kts | 258° |
| 2026-05-04 15:46 | 34.76901 | -40.90782 | 36171 ft | 468 kts | 257° |
| 2026-05-04 15:47 | 34.74944 | -40.98333 | 36170 ft | 468 kts | 257° |
| 2026-05-04 15:47 | 34.72979 | -41.05891 | 36171 ft | 468 kts | 257° |
| 2026-05-04 15:48 | 34.71024 | -41.13387 | 36175 ft | 469 kts | 257° |
| 2026-05-04 15:48 | 34.68060 | -41.24719 | 36178 ft | 469 kts | 257° |
| 2026-05-04 15:49 | 34.66073 | -41.32282 | 36174 ft | 470 kts | 257° |
| 2026-05-04 15:49 | 34.64077 | -41.39862 | 36173 ft | 470 kts | 257° |
| 2026-05-04 15:50 | 34.62080 | -41.47427 | 36175 ft | 470 kts | 257° |
| 2026-05-04 15:50 | 34.60080 | -41.54979 | 36173 ft | 470 kts | 258° |
| 2026-05-04 15:51 | 34.58074 | -41.62532 | 36173 ft | 470 kts | 258° |
| 2026-05-04 15:51 | 34.56076 | -41.70035 | 36179 ft | 470 kts | 258° |
| 2026-05-04 15:52 | 34.54058 | -41.77590 | 36178 ft | 470 kts | 258° |
| 2026-05-04 15:52 | 34.52036 | -41.85145 | 36177 ft | 471 kts | 257° |
| 2026-05-04 15:53 | 34.50008 | -41.92694 | 36180 ft | 471 kts | 257° |
| 2026-05-04 15:53 | 34.47975 | -42.00244 | 36181 ft | 471 kts | 257° |
| 2026-05-04 15:54 | 34.45937 | -42.07792 | 36183 ft | 471 kts | 257° |
| 2026-05-04 15:54 | 34.43893 | -42.15341 | 36179 ft | 471 kts | 257° |
| 2026-05-04 15:55 | 34.41846 | -42.22878 | 36186 ft | 471 kts | 257° |
| 2026-05-04 15:55 | 34.39796 | -42.30410 | 36186 ft | 471 kts | 257° |
| 2026-05-04 15:56 | 34.37737 | -42.37949 | 36189 ft | 471 kts | 257° |
| 2026-05-04 15:56 | 34.35676 | -42.45480 | 36186 ft | 471 kts | 257° |
| 2026-05-04 15:57 | 34.33612 | -42.52996 | 36186 ft | 470 kts | 257° |
| 2026-05-04 15:57 | 34.31562 | -42.60447 | 36190 ft | 470 kts | 257° |
| 2026-05-04 15:58 | 34.29494 | -42.67941 | 36193 ft | 470 kts | 257° |
| 2026-05-04 15:58 | 34.27421 | -42.75429 | 36188 ft | 469 kts | 257° |
| 2026-05-04 15:59 | 34.25346 | -42.82908 | 36191 ft | 468 kts | 257° |
| 2026-05-04 15:59 | 34.23267 | -42.90381 | 36198 ft | 469 kts | 257° |
| 2026-05-04 16:00 | 34.21182 | -42.97852 | 36196 ft | 469 kts | 257° |
| 2026-05-04 16:00 | 34.19090 | -43.05328 | 36190 ft | 469 kts | 257° |
| 2026-05-04 16:01 | 34.17012 | -43.12743 | 36195 ft | 469 kts | 257° |
| 2026-05-04 16:01 | 34.14914 | -43.20202 | 36208 ft | 470 kts | 257° |
| 2026-05-04 16:02 | 34.12805 | -43.27682 | 36203 ft | 470 kts | 257° |
| 2026-05-04 16:03 | 34.09639 | -43.38872 | 36206 ft | 469 kts | 257° |
| 2026-05-04 16:03 | 34.07529 | -43.46310 | 36204 ft | 468 kts | 257° |
| 2026-05-04 16:04 | 34.05415 | -43.53738 | 36208 ft | 467 kts | 257° |
| 2026-05-04 16:04 | 34.02262 | -43.64780 | 36206 ft | 465 kts | 257° |
| 2026-05-04 16:05 | 34.00154 | -43.72143 | 36202 ft | 463 kts | 257° |
| 2026-05-04 16:06 | 33.96992 | -43.83148 | 36201 ft | 463 kts | 257° |
| 2026-05-04 16:07 | 33.92764 | -43.97797 | 36201 ft | 462 kts | 257° |
| 2026-05-04 16:08 | 33.88536 | -44.12372 | 36199 ft | 462 kts | 257° |
| 2026-05-04 16:09 | 33.83216 | -44.30608 | 36198 ft | 462 kts | 257° |
| 2026-05-04 16:10 | 33.78946 | -44.45164 | 36196 ft | 461 kts | 256° |
| 2026-05-04 16:11 | 33.74674 | -44.59653 | 36196 ft | 461 kts | 256° |
| 2026-05-04 16:12 | 33.68211 | -44.81435 | 36199 ft | 461 kts | 256° |
| 2026-05-04 16:13 | 33.63888 | -44.95918 | 36195 ft | 460 kts | 256° |
| 2026-05-04 16:14 | 33.59564 | -45.10330 | 36195 ft | 460 kts | 256° |
| 2026-05-04 16:16 | 33.54125 | -45.28365 | 36190 ft | 460 kts | 256° |
| 2026-05-04 16:17 | 33.48676 | -45.46323 | 36185 ft | 459 kts | 256° |
| 2026-05-04 16:18 | 33.44296 | -45.60679 | 36187 ft | 459 kts | 256° |
| 2026-05-04 16:19 | 33.38809 | -45.78565 | 36187 ft | 459 kts | 255° |
| 2026-05-04 16:20 | 33.33279 | -45.96490 | 36191 ft | 459 kts | 255° |
| 2026-05-04 16:22 | 33.27727 | -46.14378 | 36194 ft | 460 kts | 255° |
| 2026-05-04 16:23 | 33.21025 | -46.35829 | 36187 ft | 459 kts | 255° |
| 2026-05-04 16:25 | 33.14666 | -46.56045 | 36188 ft | 459 kts | 254° |
| 2026-05-04 16:26 | 33.06780 | -46.80933 | 36193 ft | 459 kts | 254° |
| 2026-05-04 16:28 | 33.01110 | -46.98712 | 36102 ft | 457 kts | 252° |
| 2026-05-04 16:29 | 32.93224 | -47.23257 | 36180 ft | 453 kts | 252° |
| 2026-05-04 16:31 | 32.87569 | -47.40744 | 36178 ft | 454 kts | 252° |
| 2026-05-04 16:32 | 32.80710 | -47.61823 | 36179 ft | 456 kts | 252° |
| 2026-05-04 16:33 | 32.76127 | -47.75831 | 36177 ft | 455 kts | 252° |
| 2026-05-04 16:34 | 32.72670 | -47.86356 | 36177 ft | 456 kts | 252° |
| 2026-05-04 16:35 | 32.65737 | -48.07358 | 36181 ft | 454 kts | 252° |
| 2026-05-04 16:36 | 32.62276 | -48.17791 | 36175 ft | 454 kts | 252° |
| 2026-05-04 16:37 | 32.58798 | -48.28240 | 36171 ft | 454 kts | 252° |
| 2026-05-04 16:38 | 32.54149 | -48.42158 | 36178 ft | 453 kts | 251° |
| 2026-05-04 16:39 | 32.48327 | -48.59500 | 36177 ft | 453 kts | 251° |
| 2026-05-04 16:40 | 32.43641 | -48.73390 | 36172 ft | 455 kts | 251° |
| 2026-05-04 16:41 | 32.37761 | -48.90737 | 36172 ft | 455 kts | 251° |
| 2026-05-04 16:43 | 32.31860 | -49.08053 | 36175 ft | 455 kts | 251° |
| 2026-05-04 16:43 | 32.28296 | -49.18468 | 36176 ft | 455 kts | 251° |
| 2026-05-04 16:45 | 32.21163 | -49.39210 | 36174 ft | 455 kts | 251° |
| 2026-05-04 16:46 | 32.15186 | -49.56491 | 36173 ft | 454 kts | 251° |
| 2026-05-04 16:47 | 32.10388 | -49.70299 | 36174 ft | 454 kts | 251° |
| 2026-05-04 16:48 | 32.05577 | -49.84087 | 36174 ft | 455 kts | 251° |
| 2026-05-04 16:49 | 32.00768 | -49.97813 | 36174 ft | 454 kts | 251° |
| 2026-05-04 16:50 | 31.96975 | -50.11908 | 36179 ft | 450 kts | 256° |
| 2026-05-04 16:51 | 31.94282 | -50.22520 | 36177 ft | 450 kts | 256° |
| 2026-05-04 16:52 | 31.90679 | -50.36611 | 36175 ft | 449 kts | 256° |
| 2026-05-04 16:53 | 31.87986 | -50.47098 | 36174 ft | 448 kts | 256° |
| 2026-05-04 16:54 | 31.84371 | -50.61112 | 36172 ft | 447 kts | 256° |
| 2026-05-04 16:55 | 31.78924 | -50.82097 | 36186 ft | 447 kts | 256° |
| 2026-05-04 16:56 | 31.74369 | -50.99528 | 36183 ft | 447 kts | 256° |
| 2026-05-04 16:57 | 31.71620 | -51.09994 | 36181 ft | 447 kts | 256° |
| 2026-05-04 16:58 | 31.67949 | -51.23915 | 36175 ft | 446 kts | 256° |
| 2026-05-04 17:00 | 31.62435 | -51.44691 | 36179 ft | 445 kts | 255° |
| 2026-05-04 17:01 | 31.57799 | -51.62044 | 36171 ft | 445 kts | 255° |
| 2026-05-04 17:02 | 31.54093 | -51.75842 | 36178 ft | 444 kts | 255° |
| 2026-05-04 17:03 | 31.51294 | -51.86220 | 36182 ft | 446 kts | 255° |
| 2026-05-04 17:03 | 31.48483 | -51.96603 | 36178 ft | 445 kts | 255° |
| 2026-05-04 17:04 | 31.44740 | -52.10372 | 36183 ft | 444 kts | 255° |
| 2026-05-04 17:05 | 31.40981 | -52.24138 | 36177 ft | 442 kts | 255° |
| 2026-05-04 17:06 | 31.38159 | -52.34426 | 36176 ft | 442 kts | 255° |
| 2026-05-04 17:07 | 31.35970 | -52.42383 | 36174 ft | 442 kts | 255° |
| 2026-05-04 17:07 | 31.33444 | -52.51540 | 36178 ft | 442 kts | 255° |
| 2026-05-04 17:08 | 31.30616 | -52.61756 | 36174 ft | 442 kts | 255° |
| 2026-05-04 17:09 | 31.28718 | -52.68590 | 36171 ft | 440 kts | 255° |
| 2026-05-04 17:09 | 31.26821 | -52.75411 | 36176 ft | 441 kts | 255° |
| 2026-05-04 17:10 | 31.22385 | -52.91295 | 36172 ft | 441 kts | 255° |
| 2026-05-04 17:11 | 31.20474 | -52.98110 | 36177 ft | 441 kts | 255° |
| 2026-05-04 17:12 | 31.17605 | -53.08313 | 36176 ft | 440 kts | 255° |
| 2026-05-04 17:13 | 31.12829 | -53.25221 | 36178 ft | 439 kts | 254° |
| 2026-05-04 17:14 | 31.08980 | -53.38779 | 36180 ft | 440 kts | 254° |
| 2026-05-04 17:15 | 31.06082 | -53.48949 | 36173 ft | 440 kts | 254° |
| 2026-05-04 17:16 | 31.02205 | -53.62496 | 36180 ft | 440 kts | 254° |
| 2026-05-04 17:17 | 30.98334 | -53.75966 | 36172 ft | 439 kts | 254° |
| 2026-05-04 17:18 | 30.94441 | -53.89452 | 36178 ft | 439 kts | 254° |
| 2026-05-04 17:19 | 30.90529 | -54.02943 | 36172 ft | 439 kts | 254° |
| 2026-05-04 17:20 | 30.86610 | -54.16400 | 36178 ft | 439 kts | 253° |
| 2026-05-04 17:20 | 30.83668 | -54.26465 | 36173 ft | 439 kts | 253° |
| 2026-05-04 17:21 | 30.79723 | -54.39908 | 36169 ft | 438 kts | 253° |
| 2026-05-04 17:22 | 30.77747 | -54.46622 | 36166 ft | 439 kts | 253° |
| 2026-05-04 17:23 | 30.73787 | -54.60028 | 36167 ft | 438 kts | 253° |
| 2026-05-04 17:24 | 30.70820 | -54.70036 | 36173 ft | 438 kts | 253° |
| 2026-05-04 17:25 | 30.66845 | -54.83396 | 36170 ft | 438 kts | 253° |
| 2026-05-04 17:26 | 30.62849 | -54.96766 | 36169 ft | 438 kts | 253° |
| 2026-05-04 17:27 | 30.57841 | -55.13445 | 36177 ft | 438 kts | 253° |
| 2026-05-04 17:28 | 30.53819 | -55.26776 | 36169 ft | 438 kts | 253° |
| 2026-05-04 17:29 | 30.47771 | -55.46717 | 36171 ft | 437 kts | 253° |
| 2026-05-04 17:31 | 30.42699 | -55.63343 | 36171 ft | 437 kts | 252° |
| 2026-05-04 17:32 | 30.37621 | -55.79907 | 36164 ft | 438 kts | 252° |
| 2026-05-04 17:33 | 30.33531 | -55.93185 | 36166 ft | 437 kts | 252° |
| 2026-05-04 17:34 | 30.29430 | -56.06443 | 36170 ft | 437 kts | 252° |
| 2026-05-04 17:35 | 30.24297 | -56.22964 | 36165 ft | 437 kts | 252° |
| 2026-05-04 17:36 | 30.22235 | -56.29574 | 36166 ft | 437 kts | 252° |
| 2026-05-04 17:36 | 30.20172 | -56.36179 | 36166 ft | 437 kts | 252° |
| 2026-05-04 17:37 | 30.18102 | -56.42788 | 36160 ft | 437 kts | 252° |
| 2026-05-04 17:37 | 30.16031 | -56.49390 | 36162 ft | 437 kts | 252° |
| 2026-05-04 17:38 | 30.13952 | -56.56005 | 36162 ft | 437 kts | 252° |
| 2026-05-04 17:38 | 30.11885 | -56.62565 | 36166 ft | 437 kts | 252° |
| 2026-05-04 17:39 | 30.08760 | -56.72461 | 36164 ft | 436 kts | 252° |
| 2026-05-04 17:39 | 30.06676 | -56.79045 | 36166 ft | 436 kts | 252° |
| 2026-05-04 17:40 | 30.04590 | -56.85621 | 36164 ft | 437 kts | 252° |
| 2026-05-04 17:40 | 30.02513 | -56.92155 | 36159 ft | 436 kts | 251° |
| 2026-05-04 17:41 | 30.00418 | -56.98734 | 36160 ft | 436 kts | 251° |
| 2026-05-04 17:41 | 29.98321 | -57.05306 | 36158 ft | 436 kts | 251° |
| 2026-05-04 17:42 | 29.96219 | -57.11880 | 36156 ft | 436 kts | 251° |
| 2026-05-04 17:42 | 29.94120 | -57.18434 | 36158 ft | 436 kts | 251° |
| 2026-05-04 17:43 | 29.92025 | -57.24959 | 36156 ft | 436 kts | 251° |
| 2026-05-04 17:43 | 29.89918 | -57.31512 | 36156 ft | 436 kts | 251° |
| 2026-05-04 17:44 | 29.87806 | -57.38066 | 36158 ft | 436 kts | 251° |
| 2026-05-04 17:44 | 29.85690 | -57.44618 | 36159 ft | 437 kts | 251° |
| 2026-05-04 17:45 | 29.83570 | -57.51170 | 36157 ft | 436 kts | 251° |
| 2026-05-04 17:45 | 29.81449 | -57.57715 | 36157 ft | 436 kts | 251° |
| 2026-05-04 17:46 | 29.79327 | -57.64249 | 36158 ft | 436 kts | 251° |
| 2026-05-04 17:46 | 29.77199 | -57.70788 | 36160 ft | 436 kts | 251° |
| 2026-05-04 17:47 | 29.75081 | -57.77284 | 36161 ft | 436 kts | 251° |
| 2026-05-04 17:47 | 29.72947 | -57.83818 | 36158 ft | 436 kts | 251° |
| 2026-05-04 17:48 | 29.70810 | -57.90346 | 36161 ft | 435 kts | 251° |
| 2026-05-04 17:48 | 29.68669 | -57.96875 | 36160 ft | 436 kts | 251° |
| 2026-05-04 17:49 | 29.66528 | -58.03394 | 36159 ft | 436 kts | 251° |
| 2026-05-04 17:49 | 29.64396 | -58.09870 | 36163 ft | 436 kts | 251° |
| 2026-05-04 17:50 | 29.62249 | -58.16380 | 36161 ft | 435 kts | 251° |
| 2026-05-04 17:50 | 29.60103 | -58.22873 | 36162 ft | 435 kts | 251° |
| 2026-05-04 17:51 | 29.57953 | -58.29367 | 36161 ft | 434 kts | 251° |
| 2026-05-04 17:51 | 29.55802 | -58.35854 | 36155 ft | 434 kts | 251° |
| 2026-05-04 17:52 | 29.53645 | -58.42345 | 36155 ft | 434 kts | 250° |
| 2026-05-04 17:52 | 29.51491 | -58.48815 | 36154 ft | 434 kts | 250° |
| 2026-05-04 17:53 | 29.49334 | -58.55283 | 36151 ft | 433 kts | 250° |
| 2026-05-04 17:53 | 29.47182 | -58.61722 | 36154 ft | 434 kts | 250° |
| 2026-05-04 17:54 | 29.45018 | -58.68184 | 36154 ft | 434 kts | 250° |
| 2026-05-04 17:54 | 29.42849 | -58.74651 | 36154 ft | 434 kts | 250° |
| 2026-05-04 17:55 | 29.40678 | -58.81110 | 36155 ft | 434 kts | 250° |
| 2026-05-04 17:55 | 29.38507 | -58.87558 | 36154 ft | 434 kts | 250° |
| 2026-05-04 17:56 | 29.36331 | -58.94008 | 36154 ft | 434 kts | 250° |
| 2026-05-04 17:56 | 29.34151 | -59.00460 | 36155 ft | 433 kts | 250° |
| 2026-05-04 17:57 | 29.31986 | -59.06853 | 36153 ft | 433 kts | 250° |
| 2026-05-04 17:57 | 29.29805 | -59.13285 | 36149 ft | 432 kts | 250° |
| 2026-05-04 17:58 | 29.27627 | -59.19692 | 36144 ft | 430 kts | 250° |
| 2026-05-04 17:58 | 29.25818 | -59.25009 | 36139 ft | 431 kts | 250° |
| 2026-05-04 17:59 | 29.23278 | -59.32457 | 36138 ft | 431 kts | 250° |
| 2026-05-04 18:00 | 29.20367 | -59.40973 | 36140 ft | 431 kts | 250° |
| 2026-05-04 18:00 | 29.18178 | -59.47367 | 36142 ft | 431 kts | 250° |
| 2026-05-04 18:01 | 29.15987 | -59.53752 | 36137 ft | 431 kts | 250° |
| 2026-05-04 18:01 | 29.13796 | -59.60126 | 36136 ft | 430 kts | 250° |
| 2026-05-04 18:02 | 29.10516 | -59.69647 | 36139 ft | 431 kts | 250° |
| 2026-05-04 18:02 | 29.08313 | -59.76026 | 36142 ft | 431 kts | 250° |
| 2026-05-04 18:03 | 29.06109 | -59.82397 | 36140 ft | 430 kts | 250° |
| 2026-05-04 18:03 | 29.03900 | -59.88772 | 36140 ft | 431 kts | 250° |
| 2026-05-04 18:04 | 29.01704 | -59.95099 | 36142 ft | 430 kts | 250° |
| 2026-05-04 18:04 | 28.99921 | -60.01597 | 36147 ft | 429 kts | 261° |
| 2026-05-04 18:05 | 28.99551 | -60.04992 | 36138 ft | 430 kts | 263° |
| 2026-05-04 18:05 | 28.98911 | -60.11802 | 36142 ft | 431 kts | 263° |
| 2026-05-04 18:06 | 28.97972 | -60.21971 | 36141 ft | 431 kts | 263° |
| 2026-05-04 18:06 | 28.97334 | -60.28774 | 36139 ft | 431 kts | 263° |
| 2026-05-04 18:07 | 28.96695 | -60.35589 | 36135 ft | 431 kts | 263° |
| 2026-05-04 18:07 | 28.96051 | -60.42394 | 36140 ft | 431 kts | 263° |
| 2026-05-04 18:08 | 28.95404 | -60.49210 | 36140 ft | 431 kts | 263° |
| 2026-05-04 18:08 | 28.94758 | -60.55972 | 36139 ft | 430 kts | 263° |
| 2026-05-04 18:09 | 28.93453 | -60.69525 | 36142 ft | 429 kts | 263° |
| 2026-05-04 18:10 | 28.92795 | -60.76311 | 36138 ft | 429 kts | 263° |
| 2026-05-04 18:10 | 28.92134 | -60.83085 | 36139 ft | 429 kts | 263° |
| 2026-05-04 18:11 | 28.91468 | -60.89870 | 36138 ft | 430 kts | 262° |
| 2026-05-04 18:11 | 28.90800 | -60.96646 | 36129 ft | 430 kts | 262° |
| 2026-05-04 18:12 | 28.90128 | -61.03431 | 36136 ft | 430 kts | 262° |
| 2026-05-04 18:12 | 28.89457 | -61.10159 | 36133 ft | 430 kts | 262° |
| 2026-05-04 18:13 | 28.88779 | -61.16933 | 36131 ft | 430 kts | 262° |
| 2026-05-04 18:14 | 28.87756 | -61.27086 | 36128 ft | 429 kts | 262° |
| 2026-05-04 18:14 | 28.87071 | -61.33841 | 36128 ft | 429 kts | 262° |
| 2026-05-04 18:15 | 28.85688 | -61.47374 | 36121 ft | 429 kts | 262° |
| 2026-05-04 18:16 | 28.84996 | -61.54091 | 36121 ft | 429 kts | 262° |
| 2026-05-04 18:16 | 28.84297 | -61.60852 | 36128 ft | 429 kts | 262° |
| 2026-05-04 18:17 | 28.83242 | -61.70984 | 36118 ft | 428 kts | 262° |
| 2026-05-04 18:18 | 28.82183 | -61.81080 | 36128 ft | 429 kts | 262° |
| 2026-05-04 18:18 | 28.81469 | -61.87844 | 36117 ft | 429 kts | 262° |
| 2026-05-04 18:19 | 28.80394 | -61.97976 | 36115 ft | 428 kts | 262° |
| 2026-05-04 18:19 | 28.79679 | -62.04674 | 36110 ft | 428 kts | 262° |
| 2026-05-04 18:20 | 28.78956 | -62.11409 | 36110 ft | 427 kts | 262° |
| 2026-05-04 18:20 | 28.78231 | -62.18132 | 36117 ft | 427 kts | 262° |
| 2026-05-04 18:21 | 28.77503 | -62.24855 | 36118 ft | 427 kts | 262° |
| 2026-05-04 18:21 | 28.76772 | -62.31566 | 36117 ft | 426 kts | 262° |
| 2026-05-04 18:22 | 28.76044 | -62.38224 | 36116 ft | 426 kts | 262° |
| 2026-05-04 18:22 | 28.75307 | -62.44937 | 36116 ft | 426 kts | 262° |
| 2026-05-04 18:23 | 28.74568 | -62.51638 | 36116 ft | 425 kts | 262° |
| 2026-05-04 18:23 | 28.73830 | -62.58291 | 36115 ft | 425 kts | 262° |
| 2026-05-04 18:24 | 28.73087 | -62.64966 | 36115 ft | 424 kts | 262° |
| 2026-05-04 18:24 | 28.72340 | -62.71635 | 36116 ft | 424 kts | 262° |
| 2026-05-04 18:25 | 28.71593 | -62.78288 | 36116 ft | 423 kts | 262° |
| 2026-05-04 18:25 | 28.70842 | -62.84940 | 36114 ft | 423 kts | 262° |
| 2026-05-04 18:26 | 28.70087 | -62.91593 | 36116 ft | 424 kts | 261° |
| 2026-05-04 18:26 | 28.69330 | -62.98245 | 36113 ft | 423 kts | 261° |
| 2026-05-04 18:27 | 28.68571 | -63.04874 | 36113 ft | 421 kts | 261° |
| 2026-05-04 18:27 | 28.67815 | -63.11457 | 36112 ft | 422 kts | 262° |
| 2026-05-04 18:28 | 28.67050 | -63.18086 | 36112 ft | 422 kts | 262° |
| 2026-05-04 18:28 | 28.66281 | -63.24721 | 36110 ft | 422 kts | 262° |
| 2026-05-04 18:29 | 28.65509 | -63.31349 | 36111 ft | 422 kts | 262° |
| 2026-05-04 18:29 | 28.64734 | -63.37982 | 36114 ft | 423 kts | 262° |
| 2026-05-04 18:30 | 28.63564 | -63.47935 | 36113 ft | 423 kts | 262° |
| 2026-05-04 18:31 | 28.62783 | -63.54539 | 36108 ft | 423 kts | 262° |
| 2026-05-04 18:31 | 28.61995 | -63.61183 | 36111 ft | 422 kts | 262° |
| 2026-05-04 18:32 | 28.61205 | -63.67812 | 36106 ft | 422 kts | 262° |
| 2026-05-04 18:32 | 28.60412 | -63.74438 | 36105 ft | 422 kts | 262° |
| 2026-05-04 18:33 | 28.59615 | -63.81066 | 36102 ft | 423 kts | 262° |
| 2026-05-04 18:33 | 28.58814 | -63.87703 | 36106 ft | 423 kts | 261° |
| 2026-05-04 18:34 | 28.58008 | -63.94350 | 36107 ft | 424 kts | 261° |
| 2026-05-04 18:34 | 28.57204 | -64.00957 | 36105 ft | 424 kts | 261° |
| 2026-05-04 18:35 | 28.56389 | -64.07622 | 36098 ft | 425 kts | 261° |
| 2026-05-04 18:35 | 28.55571 | -64.14289 | 36104 ft | 426 kts | 261° |
| 2026-05-04 18:36 | 28.54747 | -64.20979 | 36099 ft | 426 kts | 261° |
| 2026-05-04 18:36 | 28.53925 | -64.27622 | 36100 ft | 425 kts | 261° |
| 2026-05-04 18:37 | 28.53098 | -64.34276 | 36093 ft | 425 kts | 261° |
| 2026-05-04 18:37 | 28.52268 | -64.40931 | 36096 ft | 425 kts | 261° |
| 2026-05-04 18:38 | 28.51433 | -64.47599 | 36092 ft | 425 kts | 261° |
| 2026-05-04 18:38 | 28.50593 | -64.54272 | 36092 ft | 426 kts | 261° |
| 2026-05-04 18:39 | 28.49755 | -64.60911 | 36092 ft | 427 kts | 261° |
| 2026-05-04 18:39 | 28.48907 | -64.67600 | 36087 ft | 428 kts | 261° |
| 2026-05-04 18:40 | 28.48053 | -64.74311 | 36090 ft | 429 kts | 261° |
| 2026-05-04 18:40 | 28.47195 | -64.81024 | 36094 ft | 430 kts | 260° |
| 2026-05-04 18:41 | 28.46330 | -64.87761 | 36094 ft | 431 kts | 260° |
| 2026-05-04 18:41 | 28.45460 | -64.94512 | 36094 ft | 432 kts | 260° |
| 2026-05-04 18:42 | 28.44587 | -65.01268 | 36093 ft | 432 kts | 260° |
| 2026-05-04 18:42 | 28.43714 | -65.07985 | 36093 ft | 433 kts | 260° |
| 2026-05-04 18:43 | 28.42832 | -65.14753 | 36096 ft | 433 kts | 260° |
| 2026-05-04 18:43 | 28.41946 | -65.21525 | 36090 ft | 433 kts | 260° |
| 2026-05-04 18:44 | 28.41055 | -65.28299 | 36088 ft | 433 kts | 260° |
| 2026-05-04 18:44 | 28.40167 | -65.35035 | 36085 ft | 434 kts | 259° |
| 2026-05-04 18:45 | 28.39269 | -65.41810 | 36079 ft | 434 kts | 259° |
| 2026-05-04 18:45 | 28.38367 | -65.48597 | 36080 ft | 435 kts | 259° |
| 2026-05-04 18:46 | 28.37460 | -65.55394 | 36081 ft | 436 kts | 259° |
| 2026-05-04 18:46 | 28.36547 | -65.62208 | 36079 ft | 436 kts | 259° |
| 2026-05-04 18:47 | 28.35628 | -65.69034 | 36079 ft | 438 kts | 259° |
| 2026-05-04 18:47 | 28.34705 | -65.75873 | 36081 ft | 438 kts | 259° |
| 2026-05-04 18:48 | 28.33783 | -65.82676 | 36083 ft | 439 kts | 259° |
| 2026-05-04 18:48 | 28.32851 | -65.89519 | 36083 ft | 439 kts | 259° |
| 2026-05-04 18:49 | 28.32074 | -65.95214 | 36081 ft | 439 kts | 259° |
| 2026-05-04 18:49 | 28.31134 | -66.02071 | 36082 ft | 439 kts | 259° |
| 2026-05-04 18:50 | 28.30192 | -66.08920 | 36080 ft | 440 kts | 259° |
| 2026-05-04 18:50 | 28.29245 | -66.15776 | 36080 ft | 440 kts | 259° |
| 2026-05-04 18:51 | 28.28295 | -66.22629 | 36079 ft | 439 kts | 259° |
| 2026-05-04 18:51 | 28.27342 | -66.29480 | 36076 ft | 439 kts | 259° |
| 2026-05-04 18:52 | 28.26386 | -66.36326 | 36075 ft | 439 kts | 258° |
| 2026-05-04 18:52 | 28.25431 | -66.43137 | 36069 ft | 440 kts | 258° |
| 2026-05-04 18:53 | 28.24466 | -66.49995 | 36071 ft | 440 kts | 258° |
| 2026-05-04 18:53 | 28.23497 | -66.56857 | 36071 ft | 441 kts | 258° |
| 2026-05-04 18:54 | 28.22523 | -66.63726 | 36073 ft | 441 kts | 258° |
| 2026-05-04 18:54 | 28.21546 | -66.70594 | 36073 ft | 441 kts | 258° |
| 2026-05-04 18:55 | 28.20571 | -66.77418 | 36073 ft | 441 kts | 258° |
| 2026-05-04 18:55 | 28.19093 | -66.87725 | 36071 ft | 441 kts | 258° |
| 2026-05-04 18:56 | 28.18104 | -66.94583 | 36069 ft | 440 kts | 258° |
| 2026-05-04 18:56 | 28.17113 | -67.01439 | 36068 ft | 440 kts | 258° |
| 2026-05-04 18:57 | 28.16127 | -67.08232 | 36070 ft | 440 kts | 258° |
| 2026-05-04 18:57 | 28.15128 | -67.15085 | 36067 ft | 441 kts | 258° |
| 2026-05-04 18:58 | 28.14127 | -67.21933 | 36066 ft | 440 kts | 258° |
| 2026-05-04 18:58 | 28.13122 | -67.28781 | 36068 ft | 440 kts | 258° |
| 2026-05-04 18:59 | 28.12113 | -67.35635 | 36068 ft | 441 kts | 258° |
| 2026-05-04 18:59 | 28.11098 | -67.42503 | 36069 ft | 442 kts | 258° |
| 2026-05-04 19:00 | 28.10087 | -67.49320 | 36067 ft | 442 kts | 258° |
| 2026-05-04 19:00 | 28.09063 | -67.56199 | 36064 ft | 442 kts | 258° |
| 2026-05-04 19:01 | 28.08037 | -67.63068 | 36064 ft | 441 kts | 258° |
| 2026-05-04 19:01 | 28.07010 | -67.69917 | 36067 ft | 441 kts | 258° |
| 2026-05-04 19:02 | 28.05981 | -67.76762 | 36067 ft | 441 kts | 258° |
| 2026-05-04 19:02 | 28.04946 | -67.83620 | 36067 ft | 441 kts | 257° |
| 2026-05-04 19:03 | 28.03915 | -67.90426 | 36066 ft | 441 kts | 257° |
| 2026-05-04 19:03 | 28.02874 | -67.97272 | 36065 ft | 440 kts | 257° |
| 2026-05-04 19:04 | 28.01830 | -68.04117 | 36061 ft | 441 kts | 257° |
| 2026-05-04 19:04 | 28.00783 | -68.10963 | 36064 ft | 441 kts | 257° |
| 2026-05-04 19:05 | 27.99733 | -68.17801 | 36061 ft | 441 kts | 257° |
| 2026-05-04 19:05 | 27.98687 | -68.24590 | 36062 ft | 440 kts | 257° |
| 2026-05-04 19:06 | 27.97634 | -68.31402 | 36061 ft | 439 kts | 257° |
| 2026-05-04 19:06 | 27.96579 | -68.38199 | 36060 ft | 439 kts | 257° |
| 2026-05-04 19:07 | 27.95520 | -68.45002 | 36060 ft | 439 kts | 257° |
| 2026-05-04 19:07 | 27.94465 | -68.51763 | 36061 ft | 438 kts | 257° |
| 2026-05-04 19:08 | 27.93401 | -68.58545 | 36061 ft | 438 kts | 257° |
| 2026-05-04 19:08 | 27.92334 | -68.65322 | 36064 ft | 438 kts | 257° |
| 2026-05-04 19:09 | 27.91264 | -68.72102 | 36064 ft | 437 kts | 257° |
| 2026-05-04 19:09 | 27.90192 | -68.78867 | 36064 ft | 436 kts | 257° |
| 2026-05-04 19:10 | 27.89119 | -68.85617 | 36062 ft | 436 kts | 257° |
| 2026-05-04 19:10 | 27.88049 | -68.92327 | 36062 ft | 436 kts | 257° |
| 2026-05-04 19:11 | 27.86971 | -68.99066 | 36058 ft | 435 kts | 256° |
| 2026-05-04 19:11 | 27.85890 | -69.05800 | 36061 ft | 435 kts | 256° |
| 2026-05-04 19:12 | 27.84267 | -69.15867 | 36057 ft | 436 kts | 256° |
| 2026-05-04 19:13 | 27.83177 | -69.22606 | 36058 ft | 435 kts | 256° |
| 2026-05-04 19:13 | 27.82084 | -69.29337 | 36056 ft | 435 kts | 256° |
| 2026-05-04 19:14 | 27.80989 | -69.36062 | 36055 ft | 435 kts | 256° |
| 2026-05-04 19:14 | 27.79898 | -69.42740 | 36057 ft | 435 kts | 256° |
| 2026-05-04 19:15 | 27.79713 | -69.43870 | 36053 ft | 435 kts | 256° |